sensor_id;sensor_type;location;lat;lon;timestamp;P1;durP1;ratioP1;P2;durP2;ratioP2
40164;SDS011;25882;51.120;17.248;2022-09-01T00:00:43;5.15;;;3.38;;
40164;SDS011;25882;51.120;17.248;2022-09-01T00:03:15;8.55;;;3.10;;
40164;SDS011;25882;51.120;17.248;2022-09-01T00:05:41;6.32;;;3.47;;
40164;SDS011;25882;51.120;17.248;2022-09-01T00:08:09;4.32;;;2.58;;
40164;SDS011;25882;51.120;17.248;2022-09-01T00:10:35;4.93;;;3.13;;
40164;SDS011;25882;51.120;17.248;2022-09-01T00:13:02;4.80;;;3.08;;
40164;SDS011;25882;51.120;17.248;2022-09-01T00:15:31;5.90;;;2.50;;
40164;SDS011;25882;51.120;17.248;2022-09-01T00:17:57;4.95;;;2.75;;
40164;SDS011;25882;51.120;17.248;2022-09-01T00:20:24;6.32;;;3.28;;
40164;SDS011;25882;51.120;17.248;2022-09-01T00:22:51;3.30;;;2.42;;
40164;SDS011;25882;51.120;17.248;2022-09-01T00:25:18;7.53;;;3.20;;
40164;SDS011;25882;51.120;17.248;2022-09-01T00:27:49;7.10;;;3.10;;
40164;SDS011;25882;51.120;17.248;2022-09-01T00:30:15;6.07;;;2.78;;
40164;SDS011;25882;51.120;17.248;2022-09-01T00:35:12;5.60;;;3.33;;
40164;SDS011;25882;51.120;17.248;2022-09-01T00:37:40;4.78;;;2.75;;
40164;SDS011;25882;51.120;17.248;2022-09-01T00:40:07;4.30;;;2.60;;
40164;SDS011;25882;51.120;17.248;2022-09-01T00:42:36;4.68;;;2.80;;
40164;SDS011;25882;51.120;17.248;2022-09-01T00:45:05;5.57;;;2.67;;
40164;SDS011;25882;51.120;17.248;2022-09-01T00:47:32;5.50;;;3.13;;
40164;SDS011;25882;51.120;17.248;2022-09-01T00:50:00;4.72;;;2.58;;
40164;SDS011;25882;51.120;17.248;2022-09-01T00:52:28;5.55;;;2.72;;
40164;SDS011;25882;51.120;17.248;2022-09-01T00:54:59;5.00;;;2.72;;
40164;SDS011;25882;51.120;17.248;2022-09-01T00:57:29;6.38;;;2.83;;
40164;SDS011;25882;51.120;17.248;2022-09-01T00:59:55;5.30;;;2.35;;
40164;SDS011;25882;51.120;17.248;2022-09-01T01:02:24;5.82;;;2.90;;
40164;SDS011;25882;51.120;17.248;2022-09-01T01:04:51;5.45;;;2.60;;
40164;SDS011;25882;51.120;17.248;2022-09-01T01:07:17;5.07;;;2.97;;
40164;SDS011;25882;51.120;17.248;2022-09-01T01:09:44;7.78;;;2.88;;
40164;SDS011;25882;51.120;17.248;2022-09-01T01:12:12;5.57;;;2.33;;
40164;SDS011;25882;51.120;17.248;2022-09-01T01:14:43;4.82;;;2.47;;
40164;SDS011;25882;51.120;17.248;2022-09-01T01:17:10;4.90;;;2.20;;
40164;SDS011;25882;51.120;17.248;2022-09-01T01:19:39;3.60;;;2.20;;
40164;SDS011;25882;51.120;17.248;2022-09-01T01:22:28;4.03;;;2.17;;
40164;SDS011;25882;51.120;17.248;2022-09-01T01:25:20;5.07;;;2.30;;
40164;SDS011;25882;51.120;17.248;2022-09-01T01:27:47;3.55;;;2.20;;
40164;SDS011;25882;51.120;17.248;2022-09-01T01:30:14;5.43;;;2.28;;
40164;SDS011;25882;51.120;17.248;2022-09-01T01:32:42;4.68;;;2.03;;
40164;SDS011;25882;51.120;17.248;2022-09-01T01:35:10;5.32;;;2.60;;
40164;SDS011;25882;51.120;17.248;2022-09-01T01:37:40;5.28;;;2.20;;
40164;SDS011;25882;51.120;17.248;2022-09-01T01:40:10;4.10;;;2.60;;
40164;SDS011;25882;51.120;17.248;2022-09-01T01:42:42;4.93;;;2.47;;
40164;SDS011;25882;51.120;17.248;2022-09-01T01:45:10;4.50;;;2.10;;
40164;SDS011;25882;51.120;17.248;2022-09-01T01:47:37;5.53;;;2.40;;
40164;SDS011;25882;51.120;17.248;2022-09-01T01:50:04;4.95;;;2.45;;
40164;SDS011;25882;51.120;17.248;2022-09-01T01:52:33;5.85;;;2.30;;
40164;SDS011;25882;51.120;17.248;2022-09-01T01:55:00;5.55;;;2.50;;
40164;SDS011;25882;51.120;17.248;2022-09-01T01:57:27;4.65;;;2.78;;
40164;SDS011;25882;51.120;17.248;2022-09-01T01:59:57;4.40;;;2.50;;
40164;SDS011;25882;51.120;17.248;2022-09-01T02:02:29;4.78;;;2.53;;
40164;SDS011;25882;51.120;17.248;2022-09-01T02:04:56;9.07;;;2.70;;
40164;SDS011;25882;51.120;17.248;2022-09-01T02:07:23;3.08;;;1.92;;
40164;SDS011;25882;51.120;17.248;2022-09-01T02:09:51;6.15;;;3.03;;
40164;SDS011;25882;51.120;17.248;2022-09-01T02:12:18;4.32;;;2.35;;
40164;SDS011;25882;51.120;17.248;2022-09-01T02:14:45;5.63;;;2.20;;
40164;SDS011;25882;51.120;17.248;2022-09-01T02:17:13;4.80;;;2.20;;
40164;SDS011;25882;51.120;17.248;2022-09-01T02:19:40;4.03;;;2.08;;
40164;SDS011;25882;51.120;17.248;2022-09-01T02:22:07;4.50;;;2.20;;
40164;SDS011;25882;51.120;17.248;2022-09-01T02:24:37;4.22;;;2.65;;
40164;SDS011;25882;51.120;17.248;2022-09-01T02:27:11;3.88;;;2.42;;
40164;SDS011;25882;51.120;17.248;2022-09-01T02:29:37;4.50;;;2.53;;
40164;SDS011;25882;51.120;17.248;2022-09-01T02:32:03;4.22;;;2.40;;
40164;SDS011;25882;51.120;17.248;2022-09-01T02:38:18;5.28;;;2.60;;
40164;SDS011;25882;51.120;17.248;2022-09-01T02:40:58;4.15;;;2.38;;
40164;SDS011;25882;51.120;17.248;2022-09-01T02:46:04;4.35;;;2.08;;
40164;SDS011;25882;51.120;17.248;2022-09-01T02:48:32;3.38;;;1.92;;
40164;SDS011;25882;51.120;17.248;2022-09-01T02:51:02;5.57;;;2.17;;
40164;SDS011;25882;51.120;17.248;2022-09-01T02:53:30;6.32;;;2.20;;
40164;SDS011;25882;51.120;17.248;2022-09-01T02:55:59;4.20;;;2.25;;
40164;SDS011;25882;51.120;17.248;2022-09-01T02:58:27;5.80;;;2.70;;
40164;SDS011;25882;51.120;17.248;2022-09-01T03:00:54;4.72;;;2.22;;
40164;SDS011;25882;51.120;17.248;2022-09-01T03:03:22;6.40;;;2.40;;
40164;SDS011;25882;51.120;17.248;2022-09-01T03:05:49;4.65;;;2.40;;
40164;SDS011;25882;51.120;17.248;2022-09-01T03:08:21;7.65;;;2.92;;
40164;SDS011;25882;51.120;17.248;2022-09-01T03:10:49;5.82;;;2.60;;
40164;SDS011;25882;51.120;17.248;2022-09-01T03:13:17;6.35;;;2.40;;
40164;SDS011;25882;51.120;17.248;2022-09-01T03:15:45;5.13;;;2.47;;
40164;SDS011;25882;51.120;17.248;2022-09-01T03:18:12;6.45;;;3.35;;
40164;SDS011;25882;51.120;17.248;2022-09-01T03:20:39;6.70;;;2.83;;
40164;SDS011;25882;51.120;17.248;2022-09-01T03:23:10;5.65;;;2.85;;
40164;SDS011;25882;51.120;17.248;2022-09-01T03:25:39;5.03;;;2.50;;
40164;SDS011;25882;51.120;17.248;2022-09-01T03:28:06;5.82;;;2.63;;
40164;SDS011;25882;51.120;17.248;2022-09-01T03:30:35;5.53;;;2.95;;
40164;SDS011;25882;51.120;17.248;2022-09-01T03:33:05;6.05;;;2.70;;
40164;SDS011;25882;51.120;17.248;2022-09-01T03:35:32;4.97;;;2.63;;
40164;SDS011;25882;51.120;17.248;2022-09-01T03:37:59;4.50;;;2.42;;
40164;SDS011;25882;51.120;17.248;2022-09-01T03:40:27;6.28;;;2.58;;
40164;SDS011;25882;51.120;17.248;2022-09-01T03:42:56;5.63;;;2.40;;
40164;SDS011;25882;51.120;17.248;2022-09-01T03:45:24;7.38;;;2.85;;
40164;SDS011;25882;51.120;17.248;2022-09-01T03:47:52;4.60;;;2.45;;
40164;SDS011;25882;51.120;17.248;2022-09-01T03:50:19;7.68;;;2.53;;
40164;SDS011;25882;51.120;17.248;2022-09-01T03:52:47;3.42;;;2.38;;
40164;SDS011;25882;51.120;17.248;2022-09-01T03:55:14;4.22;;;2.63;;
40164;SDS011;25882;51.120;17.248;2022-09-01T03:57:52;6.90;;;2.55;;
40164;SDS011;25882;51.120;17.248;2022-09-01T04:00:27;5.57;;;2.83;;
40164;SDS011;25882;51.120;17.248;2022-09-01T04:03:01;5.90;;;2.67;;
40164;SDS011;25882;51.120;17.248;2022-09-01T04:05:29;7.00;;;2.58;;
40164;SDS011;25882;51.120;17.248;2022-09-01T04:08:04;6.65;;;3.40;;
40164;SDS011;25882;51.120;17.248;2022-09-01T04:14:23;5.60;;;3.10;;
40164;SDS011;25882;51.120;17.248;2022-09-01T04:16:56;7.68;;;3.22;;
40164;SDS011;25882;51.120;17.248;2022-09-01T04:19:44;4.80;;;3.17;;
40164;SDS011;25882;51.120;17.248;2022-09-01T04:22:22;7.70;;;3.60;;
40164;SDS011;25882;51.120;17.248;2022-09-01T04:24:53;8.20;;;3.65;;
40164;SDS011;25882;51.120;17.248;2022-09-01T04:27:20;9.15;;;3.97;;
40164;SDS011;25882;51.120;17.248;2022-09-01T04:29:51;7.13;;;4.50;;
40164;SDS011;25882;51.120;17.248;2022-09-01T04:32:18;5.63;;;3.55;;
40164;SDS011;25882;51.120;17.248;2022-09-01T04:34:46;7.80;;;3.85;;
40164;SDS011;25882;51.120;17.248;2022-09-01T04:37:14;4.75;;;3.17;;
40164;SDS011;25882;51.120;17.248;2022-09-01T04:39:47;8.25;;;3.72;;
40164;SDS011;25882;51.120;17.248;2022-09-01T04:42:16;7.60;;;3.78;;
40164;SDS011;25882;51.120;17.248;2022-09-01T04:44:43;7.07;;;4.03;;
40164;SDS011;25882;51.120;17.248;2022-09-01T04:47:12;5.30;;;3.28;;
40164;SDS011;25882;51.120;17.248;2022-09-01T04:49:45;7.40;;;4.18;;
40164;SDS011;25882;51.120;17.248;2022-09-01T04:52:13;5.93;;;3.35;;
40164;SDS011;25882;51.120;17.248;2022-09-01T04:54:40;6.78;;;3.70;;
40164;SDS011;25882;51.120;17.248;2022-09-01T04:57:10;6.32;;;3.42;;
40164;SDS011;25882;51.120;17.248;2022-09-01T04:59:40;7.10;;;3.75;;
40164;SDS011;25882;51.120;17.248;2022-09-01T05:02:09;7.03;;;3.53;;
40164;SDS011;25882;51.120;17.248;2022-09-01T05:04:52;9.27;;;3.83;;
40164;SDS011;25882;51.120;17.248;2022-09-01T05:07:18;5.30;;;3.00;;
40164;SDS011;25882;51.120;17.248;2022-09-01T05:09:48;8.57;;;3.75;;
40164;SDS011;25882;51.120;17.248;2022-09-01T05:12:14;6.45;;;3.72;;
40164;SDS011;25882;51.120;17.248;2022-09-01T05:14:41;6.50;;;3.50;;
40164;SDS011;25882;51.120;17.248;2022-09-01T05:17:09;7.45;;;3.80;;
40164;SDS011;25882;51.120;17.248;2022-09-01T05:19:37;5.47;;;3.47;;
40164;SDS011;25882;51.120;17.248;2022-09-01T05:22:05;6.88;;;4.07;;
40164;SDS011;25882;51.120;17.248;2022-09-01T05:24:33;6.68;;;3.47;;
40164;SDS011;25882;51.120;17.248;2022-09-01T05:27:14;8.05;;;3.88;;
40164;SDS011;25882;51.120;17.248;2022-09-01T05:29:42;6.43;;;3.33;;
40164;SDS011;25882;51.120;17.248;2022-09-01T05:32:10;5.72;;;3.58;;
40164;SDS011;25882;51.120;17.248;2022-09-01T05:34:42;6.97;;;3.10;;
40164;SDS011;25882;51.120;17.248;2022-09-01T05:37:23;7.18;;;3.08;;
40164;SDS011;25882;51.120;17.248;2022-09-01T05:39:53;7.75;;;3.33;;
40164;SDS011;25882;51.120;17.248;2022-09-01T05:42:20;6.85;;;3.38;;
40164;SDS011;25882;51.120;17.248;2022-09-01T05:44:47;5.85;;;3.53;;
40164;SDS011;25882;51.120;17.248;2022-09-01T05:47:50;5.97;;;3.57;;
40164;SDS011;25882;51.120;17.248;2022-09-01T05:50:34;5.90;;;3.22;;
40164;SDS011;25882;51.120;17.248;2022-09-01T05:53:01;5.82;;;3.10;;
40164;SDS011;25882;51.120;17.248;2022-09-01T05:55:38;5.70;;;2.75;;
40164;SDS011;25882;51.120;17.248;2022-09-01T06:09:21;4.55;;;3.08;;
40164;SDS011;25882;51.120;17.248;2022-09-01T06:11:48;5.78;;;2.30;;
40164;SDS011;25882;51.120;17.248;2022-09-01T06:14:15;5.60;;;2.40;;
40164;SDS011;25882;51.120;17.248;2022-09-01T06:16:43;5.50;;;2.40;;
40164;SDS011;25882;51.120;17.248;2022-09-01T06:19:10;6.90;;;2.75;;
40164;SDS011;25882;51.120;17.248;2022-09-01T06:21:37;6.25;;;2.22;;
40164;SDS011;25882;51.120;17.248;2022-09-01T06:24:05;4.63;;;2.63;;
40164;SDS011;25882;51.120;17.248;2022-09-01T06:26:37;5.15;;;2.50;;
40164;SDS011;25882;51.120;17.248;2022-09-01T06:29:05;6.13;;;2.45;;
40164;SDS011;25882;51.120;17.248;2022-09-01T06:31:34;4.80;;;2.13;;
40164;SDS011;25882;51.120;17.248;2022-09-01T06:34:04;6.75;;;2.13;;
40164;SDS011;25882;51.120;17.248;2022-09-01T06:36:33;5.32;;;2.28;;
40164;SDS011;25882;51.120;17.248;2022-09-01T06:39:01;5.25;;;2.20;;
40164;SDS011;25882;51.120;17.248;2022-09-01T06:41:28;5.68;;;2.20;;
40164;SDS011;25882;51.120;17.248;2022-09-01T06:44:03;3.92;;;1.70;;
40164;SDS011;25882;51.120;17.248;2022-09-01T06:47:00;2.58;;;1.48;;
40164;SDS011;25882;51.120;17.248;2022-09-01T06:49:27;4.53;;;2.05;;
